Terminal Aerodrome Forecast
Issued by NWS Dallas/Fort Worth, TX

Home | Current Version | Previous Version | Text Only | Print | Product List | Glossary On
Versions: 1 2 3 4 5 6 7 8 9 10 11 12 13 14 15 16 17 18 19 20 21 22 23 24 25 26 27 28 29
630
FTUS44 KFWD 290520
TAFDFW
TAF
KDFW 290520Z 2906/3012 18008KT P6SM FEW150 SCT300
     FM292100 15009KT P6SM VCSH SCT060
     FM300100 17008KT P6SM SCT060 SCT150=

USA.gov is the U.S. government's official web portal to all federal, state and local government web resources and services.